DW2762 Weather Reports


Display with metric or nautical units.
time (UTC)temp
F
wind
direction
speed
MPH
gust
MPH
rain 1hr
in
rain 24hr
in
rain mn
in
humidity
%
barometer
mb
20210305190109 30 325 6.0 11.0 0.00 0.32 0.32 77 1028.2
20210305184609 30 317 7.0 9.0 0.00 0.32 0.32 75 1027.9
20210305183110 31 306 5.0 9.0 0.00 0.32 0.32 73 1027.7
20210305181609 31 325 5.0 9.0 0.00 0.32 0.32 70 1027.6
20210305180153 31 330 5.0 8.0 0.00 0.32 0.32 69 1027.7
20210305174610 31 334 6.0 9.0 0.00 0.32 0.32 70 1027.2
20210305173113 31 323 3.0 9.0 0.00 0.32 0.32 71 1027.0
20210305171611 32 5 6.0 9.0 0.00 0.32 0.32 70 1026.6
20210305170149 32 5 5.0 10.0 0.00 0.32 0.32 67 1026.1
20210305164615 33 355 9.0 17.0 0.00 0.32 0.32 69 1025.7
20210305163842 33 23 10.0 14.0 0.00 0.32 0.32 68 1025.4
20210305161614 34 13 13.0 21.0 0.00 0.32 0.32 66 1025.2
20210305160109 34 5 9.0 15.0 0.00 0.32 0.32 72 1024.6
20210305154612 35 34 9.0 18.0 0.00 0.32 0.32 72 1024.3
20210305153210 34 324 12.0 16.0 0.00 0.32 0.32 76 1024.2
20210305151610 34 338 9.0 15.0 0.00 0.32 0.32 76 1023.9
20210305150141 34 5 9.0 13.0 0.00 0.32 0.32 78 1023.8
20210305144610 34 315 8.0 12.0 0.00 0.32 0.32 79 1023.5
20210305143137 34 5 7.0 12.0 0.00 0.32 0.32 78 1023.2
20210305141620 34 350 11.0 15.0 0.00 0.32 0.32 77 1023.0
20210305140342 34 360 12.0 16.0 0.00 0.32 0.32 77 1022.7
20210305134634 35 21 11.0 15.0 0.00 0.32 0.32 79 1022.3
20210305133121 35 38 9.0 13.0 0.00 0.32 0.32 80 1022.0
20210305131610 35 29 12.0 18.0 0.00 0.32 0.32 79 1021.9
20210305130321 35 326 12.0 17.0 0.00 0.32 0.32 81 1021.3
20210305124616 36 343 13.0 17.0 0.00 0.32 0.32 83 1021.0
20210305123423 36 9 10.0 14.0 0.00 0.32 0.32 86 1020.8
20210305121611 36 19 10.0 14.0 0.00 0.32 0.32 86 1020.6
20210305120121 37 337 10.0 15.0 0.01 0.32 0.32 88 1020.3
20210305114612 36 327 11.0 13.0 0.01 0.32 0.32 88 1020.4
20210305113153 37 360 10.0 15.0 0.02 0.32 0.32 87 1020.2
20210305111626 37 355 8.0 17.0 0.04 0.32 0.32 84 1020.1
20210305110136 37 347 6.0 14.0 0.06 0.31 0.31 84 1019.8
20210305104610 37 18 8.0 14.0 0.09 0.31 0.31 86 1019.7
20210305103131 36 32 5.0 11.0 0.11 0.30 0.30 88 1019.6
20210305101609 36 303 5.0 12.0 0.12 0.28 0.28 88 1019.5
20210305100207 36 11 5.0 12.0 0.12 0.26 0.26 89 1019.3
20210305094609 36 20 7.0 11.0 0.11 0.23 0.23 90 1018.9
20210305093110 35 333 6.0 9.0 0.07 0.19 0.19 92 1018.8
20210305091609 33 21 5.0 11.0 0.05 0.17 0.17 93 1018.8
20210305090119 33 342 9.0 12.0 0.02 0.14 0.14 93 1018.5
20210305084609 33 355 6.0 11.0 0.00 0.12 0.12 93 1018.4
20210305083137 33 16 3.0 4.0 0.00 0.12 0.12 94 1018.1
20210305081612 33 28 3.0 4.0 0.00 0.12 0.12 94 1018.0
20210305080111 33 12 3.0 8.0 0.00 0.12 0.12 93 1017.6
20210305074608 32 9 3.0 7.0 0.00 0.12 0.12 93 1017.4
20210305073118 32 21 2.0 4.0 0.00 0.12 0.12 93 1017.2
20210305071611 32 355 5.0 7.0 0.00 0.12 0.12 93 1016.9
20210305070152 32 28 5.0 9.0 0.00 0.12 0.12 93 1016.7
20210305064610 33 360 2.0 4.0 0.01 0.12 0.12 93 1016.3
20210305063156 33 18 3.0 7.0 0.03 0.12 0.12 93 1015.9
20210305061609 33 53 3.0 4.0 0.06 0.12 0.12 92 1015.7
20210305060112 33 17 2.0 5.0 0.08 0.12 0.12 92 1015.3
20210305054612 34 30 2.0 4.0 0.08 0.11 0.11 91 1015.2
20210305053108 35 331 5.0 9.0 0.07 0.09 0.09 91 1015.0
20210305051610 36 348 4.0 10.0 0.06 0.06 0.06 91 1014.8
20210305050110 37 309 6.0 10.0 0.04 0.04 0.04 92 1014.4
20210305044609 37 334 5.0 9.0 0.03 0.03 0.03 92 1014.2
20210305043137 38 43 8.0 11.0 0.02 0.02 0.02 92 1014.0
20210305041611 38 345 3.0 4.0 0.01 0.01 0.01 92 1013.7
20210305040354 38 33 2.0 4.0 0.00 0.00 0.00 92 1013.7
20210305034655 38 28 4.0 7.0 0.00 0.00 0.00 91 1013.7
20210305033114 38 325 3.0 3.0 0.00 0.00 0.00 92 1013.7
20210305031611 38 46 3.0 4.0 0.00 0.00 0.00 92 1013.4
20210305030128 38 355 2.0 5.0 0.00 0.00 0.00 92 1013.5
20210305024609 38 23 3.0 5.0 0.00 0.00 0.00 92 1013.5
20210305023109 38 5 4.0 4.0 0.00 0.00 0.00 91 1013.7
20210305021650 38 15 2.0 4.0 0.00 0.00 0.00 92 1013.5
20210305020149 38 280 1.0 2.0 0.00 0.00 0.00 91 1013.5
20210305014611 38 14 1.0 3.0 0.00 0.00 0.00 92 1013.6
20210305013217 38 360 3.0 4.0 0.00 0.00 0.00 91 1013.7
20210305011613 38 44 3.0 3.0 0.00 0.00 0.00 92 1014.0
20210305010108 38 318 3.0 4.0 0.00 0.00 0.00 92 1014.0
20210305004609 38 339 2.0 3.0 0.00 0.00 0.00 92 1013.9
20210305003125 38 11 1.0 2.0 0.00 0.00 0.00 91 1014.0
20210305001614 37 11 1.0 2.0 0.00 0.00 0.00 91 1013.9
20210304234614 38 11 0.0 2.0 0.00 0.00 0.00 91 1013.9
20210304233227 38 33 2.0 3.0 0.00 0.00 0.00 91 1013.9
20210304231621 38 57 0.0 4.0 0.00 0.00 0.00 91 1014.1
20210304230201 38 355 3.0 5.0 0.00 0.00 0.00 92 1014.0
20210304224616 37 346 3.0 4.0 0.00 0.00 0.00 91 1014.1
20210304223226 37 329 3.0 4.0 0.00 0.00 0.00 91 1014.3
20210304221609 37 355 2.0 4.0 0.00 0.00 0.00 91 1014.3
20210304220231 38 320 4.0 5.0 0.00 0.00 0.00 91 1014.4
20210304214618 38 355 4.0 5.0 0.00 0.00 0.00 90 1014.4
20210304213123 38 336 2.0 3.0 0.00 0.00 0.00 90 1014.5
20210304211615 38 332 4.0 6.0 0.00 0.00 0.00 89 1014.6
20210304210120 40 360 1.0 2.0 0.00 0.00 0.00 89 1014.6
20210304204622 40 340 1.0 3.0 0.00 0.00 0.00 89 1014.6
20210304203439 40 290 1.0 2.0 0.00 0.00 0.00 89 1014.4
20210304201628 41 290 0.0 2.0 0.00 0.00 0.00 89 1014.4
20210304200327 41 290 1.0 2.0 0.00 0.00 0.00 89 1014.5
20210304194621 41 290 0.0 1.0 0.00 0.00 0.00 89 1014.5
20210304193238 41 290 0.0 2.0 0.00 0.00 0.00 89 1014.6
20210304191609 41 290 0.0 2.0 0.00 0.00 0.00 89 1014.6